Latest Weather Observations for Badgerys Creek

IDN60801

Issued at 4:03 pm EST Wednesday 4 May 2016 (issued every 30 minutes, with the page automatically refreshed every 10 minutes)

About weather observations | Map of weather stations | Latest weather observations for NSW | Other Formats
Station Details ID: 067108 Name: BADGERYS CREEK AWS Lat: -33.90 Lon: 150.73 Height: 81.2 m
Data from the previous 72 hours. | See also: Recent months at Badgerys Creek
Date/Time
EST
Temp
°C
App
Temp
°C
Dew
Point
Rel
Hum
%
Delta-T
°C
Wind Press
QNH
hPa
Press
MSL
hPa
Rain
since 9 am
mm
Dir
 
Spd
km/h
Gust
km/h
Spd
kts
Gust
kts
04/04:00pm 24.0 22.5 9.2 39 8.0 E 7 13 4 7 1014.1 1014.1 0.0
04/03:30pm 24.7 23.6 8.6 36 8.7 ENE 4 7 2 4 1013.9 1013.9 0.0
04/03:00pm 25.1 23.9 9.4 37 8.6 ENE 6 9 3 5 1013.7 1013.7 0.0
04/02:30pm 24.0 22.0 8.8 38 8.2 NE 9 13 5 7 1013.7 1013.7 0.0
04/02:00pm 24.4 22.9 9.2 38 8.3 ENE 7 15 4 8 1013.7 1013.7 0.0
04/01:30pm 24.7 23.3 9.0 37 8.5 ESE 6 15 3 8 1013.8 1013.8 0.0
04/01:00pm 24.3 21.4 8.3 36 8.6 ESE 13 19 7 10 1014.0 1014.0 0.0
04/12:30pm 24.4 23.4 8.8 37 8.4 SSE 4 13 2 7 1014.1 1014.1 0.0
04/12:00pm 23.6 21.7 7.7 36 8.4 NE 7 13 4 7 1014.4 1014.4 0.0
04/11:30am 23.4 21.7 7.5 36 8.3 NNW 6 9 3 5 1014.8 1014.8 0.0
04/11:00am 22.7 21.1 8.8 41 7.4 NE 7 13 4 7 1015.0 1015.0 0.0
04/10:30am 21.4 20.0 9.0 45 6.6 E 6 9 3 5 1015.2 1015.2 0.0
04/10:00am 20.1 19.2 9.4 50 5.7 ENE 4 7 2 4 1015.4 1015.4 0.0
04/09:30am 18.5 17.7 9.8 57 4.6 N 4 6 2 3 1015.4 1015.4 0.0
04/09:00am 15.9 15.1 9.6 66 3.3 WNW 4 6 2 3 1015.3 1015.3 0.0
04/08:30am 13.1 12.9 9.2 77 2.0 CALM 0 0 0 0 1015.0 1015.0 0.0
04/08:00am 11.1 10.1 9.0 87 1.0 WNW 4 6 2 3 1014.6 1014.6 0.0
04/07:30am 8.6 7.0 8.0 96 0.3 WNW 6 7 3 4 1014.3 1014.3 0.0
04/07:00am 7.6 5.6 7.2 97 0.2 WNW 7 9 4 5 1013.7 1013.7 0.0
04/06:30am 8.1 6.3 7.2 94 0.4 WNW 6 6 3 3 1013.1 1013.1 0.0
04/06:00am 8.2 6.3 6.5 89 0.8 WNW 6 7 3 4 1012.6 1012.6 0.0
04/05:30am 11.3 10.9 8.3 82 1.5 CALM 0 6 0 3 1012.2 1012.2 0.0
04/05:00am 9.8 7.9 6.9 82 1.4 N 6 7 3 4 1011.9 1011.9 0.0
04/04:30am 12.1 9.9 7.8 75 2.1 N 9 13 5 7 1011.6 1011.6 0.0
04/04:00am 12.8 10.0 8.5 75 2.2 N 13 15 7 8 1011.2 1011.2 0.0
04/03:30am 12.9 10.0 8.0 72 2.4 N 13 13 7 7 1011.1 1011.1 0.0
04/03:00am 13.0 10.1 8.3 73 2.3 N 13 15 7 8 1011.0 1011.0 0.0
04/02:30am 13.1 10.2 8.2 72 2.4 N 13 15 7 8 1010.9 1010.8 0.0
04/02:00am 14.2 12.2 8.6 69 2.8 NNW 9 11 5 6 1010.9 1010.8 0.0
04/01:30am 14.2 11.2 7.7 65 3.2 N 13 15 7 8 1011.0 1011.0 0.0
04/01:00am 15.7 13.2 8.4 62 3.7 N 11 13 6 7 1010.9 1010.8 0.0
04/12:30am 15.2 12.7 8.0 62 3.6 N 11 13 6 7 1010.8 1010.7 0.0
04/12:00am 15.3 13.2 8.1 62 3.6 N 9 11 5 6 1010.9 1010.8 0.0
 
Date/Time
EST
Temp
°C
App
Temp
°C
Dew
Point
Rel
Hum
%
Delta-T
°C
Wind Press
QNH
hPa
Press
MSL
hPa
Rain
since 9 am
mm
Dir
 
Spd
km/h
Gust
km/h
Spd
kts
Gust
kts
03/11:30pm 15.4 13.2 7.7 60 3.9 N 9 15 5 8 1010.8 1010.7 0.0
03/11:00pm 16.1 14.5 8.1 59 4.1 N 6 9 3 5 1010.8 1010.7 0.0
03/10:30pm 14.8 12.9 6.9 59 3.9 N 6 9 3 5 1010.6 1010.5 0.0
03/10:00pm 15.8 14.8 7.3 57 4.2 N 2 6 1 3 1010.3 1010.2 0.0
03/09:30pm 16.1 13.8 7.3 56 4.4 N 9 11 5 6 1010.0 1009.9 0.0
03/09:00pm 16.8 14.5 7.4 54 4.7 NNW 9 11 5 6 1009.7 1009.6 0.0
03/08:30pm 17.4 14.4 7.5 52 5.0 NNW 13 17 7 9 1009.4 1009.3 0.0
03/08:00pm 17.4 14.4 7.5 52 5.0 NNW 13 17 7 9 1008.9 1008.8 0.0
03/07:30pm 17.3 14.1 6.8 50 5.2 NNW 13 17 7 9 1008.6 1008.5 0.0
03/07:00pm 16.8 14.2 6.3 50 5.2 NW 9 13 5 7 1008.3 1008.2 0.0
03/06:30pm 19.4 17.3 6.8 44 6.4 WNW 7 11 4 6 1008.0 1007.9 0.0
03/06:00pm 19.6 17.6 6.4 42 6.6 WNW 6 7 3 4 1007.7 1007.6 0.0
03/05:30pm 20.2 16.9 6.2 40 7.0 NW 13 17 7 9 1007.0 1006.9 0.0
03/05:00pm 22.0 18.2 5.8 35 8.2 NNW 15 22 8 12 1006.6 1006.5 0.0
03/04:30pm 23.3 19.1 5.7 32 8.9 NNW 17 26 9 14 1006.5 1006.4 0.0
03/04:00pm 24.6 20.0 5.4 29 9.8 NW 19 28 10 15 1006.3 1006.2 0.0
03/03:30pm 25.3 21.1 5.5 28 10.1 WNW 17 24 9 13 1006.3 1006.2 0.0
03/03:00pm 25.7 20.6 4.2 25 10.8 NW 20 30 11 16 1006.4 1006.3 0.0
03/02:30pm 25.7 21.1 5.8 28 10.3 WNW 19 28 10 15 1006.5 1006.4 0.0
03/02:00pm 25.3 20.2 6.0 29 10.0 NW 22 30 12 16 1006.8 1006.7 0.0
03/01:30pm 25.3 20.7 6.5 30 9.8 NW 20 32 11 17 1007.0 1006.9 0.0
03/01:00pm 24.7 19.6 6.0 30 9.6 NW 22 39 12 21 1007.6 1007.5 0.0
03/12:30pm 24.4 18.9 5.7 30 9.6 NNW 24 39 13 21 1008.1 1008.0 0.0
03/12:00pm 24.0 19.2 5.8 31 9.3 NW 20 35 11 19 1008.8 1008.7 0.0
03/11:30am 23.1 18.1 6.4 34 8.6 NW 22 33 12 18 1009.5 1009.4 0.0
03/11:00am 22.3 18.4 6.9 37 7.9 NW 17 28 9 15 1010.3 1010.2 0.0
03/10:30am 21.7 18.8 8.2 42 7.1 NW 13 24 7 13 1011.0 1011.0 0.0
03/10:00am 20.5 18.6 9.1 48 6.1 NW 9 19 5 10 1011.8 1011.8 0.0
03/09:30am 18.4 17.1 9.2 55 4.8 W 6 7 3 4 1012.2 1012.2 0.0
03/09:00am 16.3 15.8 9.3 63 3.6 W 2 6 1 3 1012.6 1012.6 0.0
03/08:30am 13.9 13.1 9.5 75 2.3 ESE 4 6 2 3 1012.9 1012.9 0.0
03/08:00am 10.4 9.3 8.3 87 1.0 ESE 4 6 2 3 1012.7 1012.7 0.0
03/07:30am 7.6 6.6 7.5 99 0.0 ESE 2 4 1 2 1012.8 1012.8 0.0
03/07:00am 5.3 3.5 5.2 99 0.0 ESE 4 6 2 3 1012.7 1012.7 0.0
03/06:30am 5.8 4.3 5.2 96 0.3 SSW 2 6 1 3 1012.4 1012.4 0.0
03/06:00am 6.1 4.0 5.7 97 0.2 SSW 6 7 3 4 1012.1 1012.1 0.0
03/05:30am 6.8 4.9 6.5 98 0.1 SSW 6 7 3 4 1011.8 1011.8 0.0
03/05:00am 6.9 5.0 6.6 98 0.1 SSW 6 9 3 5 1011.7 1011.7 0.0
03/04:30am 6.3 4.2 5.9 97 0.2 SSW 6 7 3 4 1011.6 1011.6 0.0
03/04:00am 6.5 5.5 5.5 93 0.4 CALM 0 0 0 0 1011.4 1011.4 0.0
03/03:30am 7.7 6.7 5.5 86 1.0 CALM 0 4 0 2 1011.4 1011.4 0.0
03/03:00am 8.5 7.2 6.0 84 1.1 SSW 2 7 1 4 1011.5 1011.5 0.0
03/02:30am 8.7 7.2 6.7 87 0.9 S 4 6 2 3 1011.8 1011.8 0.0
03/02:00am 8.1 6.0 5.6 84 1.1 WSW 6 9 3 5 1012.0 1012.0 0.0
03/01:30am 10.3 8.3 7.0 80 1.6 WSW 7 9 4 5 1012.6 1012.6 0.0
03/01:00am 9.6 7.1 6.7 82 1.4 SW 9 11 5 6 1013.0 1013.0 0.0
03/12:30am 9.8 7.7 6.5 80 1.5 W 7 9 4 5 1013.2 1013.2 0.0
03/12:00am 11.4 9.5 6.9 74 2.2 W 6 9 3 5 1013.3 1013.3 0.0
 
Date/Time
EST
Temp
°C
App
Temp
°C
Dew
Point
Rel
Hum
%
Delta-T
°C
Wind Press
QNH
hPa
Press
MSL
hPa
Rain
since 9 am
mm
Dir
 
Spd
km/h
Gust
km/h
Spd
kts
Gust
kts
02/11:30pm 11.4 9.7 6.1 70 2.5 W 4 6 2 3 1013.8 1013.8 0.0
02/11:00pm 12.2 10.2 7.3 72 2.4 W 7 11 4 6 1013.8 1013.8 0.0
02/10:30pm 11.4 9.5 6.5 72 2.3 W 6 7 3 4 1014.0 1014.0 0.0
02/10:00pm 13.6 12.2 5.7 59 3.7 W 2 4 1 2 1014.0 1014.0 0.0
02/09:30pm 15.2 13.1 5.7 53 4.6 W 6 9 3 5 1014.0 1014.0 0.0
02/09:00pm 14.6 12.6 7.2 61 3.6 W 7 9 4 5 1014.0 1014.0 0.0
02/08:30pm 14.7 13.0 7.5 62 3.6 W 6 6 3 3 1013.7 1013.7 0.0
02/08:00pm 16.3 13.3 6.2 51 4.9 NW 11 13 6 7 1013.7 1013.7 0.0
02/07:30pm 18.9 16.7 6.4 44 6.2 NNW 7 9 4 5 1013.4 1013.4 0.0
02/07:00pm 18.4 17.4 7.5 49 5.5 NE 2 6 1 3 1013.2 1013.2 0.0
02/06:30pm 17.2 16.5 10.1 63 3.8 SSE 4 6 2 3 1012.9 1012.9 0.0
02/06:00pm 18.6 16.2 7.1 47 5.8 NW 9 13 5 7 1012.3 1012.3 0.0
02/05:30pm 18.7 16.0 7.2 47 5.8 NW 11 13 6 7 1012.0 1012.0 0.0
02/05:00pm 19.6 17.5 6.7 43 6.5 NW 7 9 4 5 1011.9 1011.9 0.0
02/04:30pm 19.5 19.4 10.8 57 4.7 NW 2 4 1 2 1011.9 1011.9 0.0
02/04:00pm 20.9 20.6 10.1 50 5.9 NNE 2 4 1 2 1012.1 1012.1 0.0
02/03:30pm 21.7 21.3 9.9 47 6.4 NNE 2 4 1 2 1012.1 1012.1 0.0
02/03:00pm 21.9 20.4 9.1 44 6.9 NNE 7 11 4 6 1012.2 1012.2 0.0
02/02:30pm 22.1 21.2 9.3 44 6.9 NE 4 7 2 4 1012.2 1012.2 0.0
02/02:00pm 21.7 20.4 9.3 45 6.7 ENE 6 11 3 6 1012.2 1012.2 0.0
02/01:30pm 21.6 19.6 8.8 44 6.8 ENE 9 13 5 7 1012.1 1012.1 0.0
02/01:00pm 21.4 19.7 8.3 43 6.9 NE 7 13 4 7 1012.8 1012.8 0.0
02/12:30pm 21.4 18.9 8.0 42 7.0 NE 11 17 6 9 1013.9 1013.9 0.0
02/12:00pm 22.5 20.2 7.5 38 7.8 NNE 9 19 5 10 1013.7 1013.7 0.0
02/11:30am 21.3 19.5 7.2 40 7.3 N 6 13 3 7 1014.4 1014.4 0.0
02/11:00am 20.7 19.5 8.0 44 6.6 NE 4 9 2 5 1015.1 1015.1 0.0
02/10:30am 19.6 18.4 8.0 47 6.0 ENE 4 11 2 6 1015.8 1015.8 0.0
02/10:00am 18.6 17.5 8.6 52 5.2 NE 4 7 2 4 1016.3 1016.3 0.0
02/09:30am 17.3 15.7 8.2 55 4.7 ENE 6 7 3 4 1016.7 1016.7 0.0
02/09:00am 15.8 15.3 9.5 66 3.3 SSW 2 2 1 1 1017.1 1017.1 0.2
02/08:30am 13.4 12.8 8.9 74 2.3 SW 2 6 1 3 1017.6 1017.5 0.2
02/08:00am 12.1 11.3 9.5 84 1.3 SW 4 6 2 3 1017.8 1017.7 0.2
02/07:30am 9.7 8.6 8.6 93 0.5 SW 4 7 2 4 1017.6 1017.5 0.2
02/07:00am 7.9 6.6 7.8 99 0.0 SW 4 4 2 2 1017.3 1017.3 0.2
02/06:30am 6.7 4.5 6.4 98 0.1 SW 7 9 4 5 1017.2 1017.2 0.2
02/06:00am 7.3 5.3 6.4 94 0.4 SW 6 7 3 4 1017.2 1017.2 0.2
02/05:30am 8.5 7.0 6.6 88 0.9 SW 4 6 2 3 1017.1 1017.1 0.2
02/05:00am 8.4 6.4 7.0 91 0.7 SW 7 11 4 6 1016.6 1016.6 0.2
02/04:30am 9.1 8.2 6.2 82 1.3 CALM 0 0 0 0 1016.1 1016.1 0.2
02/04:00am 9.3 8.5 6.7 84 1.2 CALM 0 0 0 0 1015.9 1015.9 0.2
02/03:30am 10.4 9.7 7.1 80 1.6 CALM 0 0 0 0 1015.7 1015.7 0.2
02/03:00am 10.2 8.3 6.9 80 1.6 SSW 6 7 3 4 1015.7 1015.7 0.2
02/02:30am 13.2 11.7 7.0 66 3.0 ESE 4 6 2 3 1015.8 1015.8 0.2
02/02:00am 13.0 12.0 7.2 68 2.8 E 2 2 1 1 1015.9 1015.9 0.2
02/01:30am 10.9 9.4 6.6 75 2.0 SW 4 7 2 4 1015.9 1015.9 0.2
02/01:00am 11.9 8.8 7.4 74 2.2 SW 13 15 7 8 1015.6 1015.6 0.2
02/12:30am 13.0 10.0 7.7 70 2.6 SW 13 15 7 8 1015.9 1015.9 0.2
02/12:00am 12.7 9.8 8.0 73 2.3 SW 13 17 7 9 1015.8 1015.8 0.2
 
Date/Time
EST
Temp
°C
App
Temp
°C
Dew
Point
Rel
Hum
%
Delta-T
°C
Wind Press
QNH
hPa
Press
MSL
hPa
Rain
since 9 am
mm
Dir
 
Spd
km/h
Gust
km/h
Spd
kts
Gust
kts
01/11:30pm 13.5 11.1 6.8 64 3.2 SW 9 13 5 7 1016.1 1016.1 0.2
01/11:00pm 15.8 14.0 7.8 59 4.0 SW 7 9 4 5 1016.1 1016.1 0.2
01/10:30pm 16.6 13.9 7.5 55 4.6 W 11 15 6 8 1015.8 1015.8 0.2
01/10:00pm 16.9 14.2 7.3 53 4.8 WNW 11 15 6 8 1015.7 1015.7 0.2
01/09:30pm 17.9 15.2 7.3 50 5.4 W 11 15 6 8 1015.4 1015.4 0.2
01/09:00pm 19.7 16.0 8.1 47 6.0 W 17 22 9 12 1014.8 1014.8 0.2
01/08:30pm 20.3 15.8 8.6 47 6.1 W 22 32 12 17 1014.2 1014.2 0.2
01/08:00pm 19.6 16.3 9.5 52 5.4 WSW 17 22 9 12 1013.6 1013.6 0.2
01/07:30pm 19.4 16.6 8.4 49 5.7 WNW 13 15 7 8 1013.1 1013.1 0.2
01/07:00pm 20.4 18.8 8.1 45 6.4 WNW 6 9 3 5 1012.6 1012.6 0.2
01/06:30pm 21.5 20.1 7.3 40 7.3 NW 4 9 2 5 1012.2 1012.2 0.2
01/06:00pm 23.3 19.4 7.0 35 8.5 W 17 24 9 13 1011.6 1011.6 0.2
01/05:30pm 23.8 19.6 7.4 35 8.6 WNW 19 28 10 15 1011.1 1011.1 0.2
01/05:00pm 25.1 20.8 7.7 33 9.3 WNW 20 33 11 18 1010.6 1010.5 0.2
01/04:37pm 26.3 20.3 6.9 29 10.2 WNW 28 46 15 25 1010.2 1010.1 0.2
01/04:30pm 26.6 21.5 7.6 30 10.2 W 24 33 13 18 1010.2 1010.1 0.2

Other Formats:

Comma delimited format used in spreadsheet applications
http://www.bom.gov.au/fwo/IDN60801/IDN60801.94752.axf

JavaScript Object Notation format (JSON) in row-major order
http://www.bom.gov.au/fwo/IDN60801/IDN60801.94752.json